createdAt,value
2022-10-29T00:01:54.673Z,101576.91
2022-10-29T00:06:59.175Z,101578.53
2022-10-29T00:12:02.083Z,101584.56
2022-10-29T00:17:04.912Z,101577.81
2022-10-29T00:22:09.133Z,101588.44
2022-10-29T00:27:12.091Z,101595.34
2022-10-29T00:32:14.991Z,101598.69
2022-10-29T00:37:19.201Z,101609.63
2022-10-29T00:42:22.331Z,101605.16
2022-10-29T00:47:29.008Z,101608.66
2022-10-29T00:52:35.382Z,101622.59
2022-10-29T00:57:41.052Z,101616.72
2022-10-29T01:02:45.897Z,101623.00
2022-10-29T01:07:50.287Z,101629.81
2022-10-29T01:13:19.823Z,101631.59
2022-10-29T01:18:29.217Z,101639.09
2022-10-29T01:24:02.687Z,101635.88
2022-10-29T01:29:20.750Z,101628.53
2022-10-29T01:34:29.938Z,101649.06
2022-10-29T01:39:38.899Z,101658.84
2022-10-29T01:44:46.755Z,101657.63
2022-10-29T01:49:55.217Z,101662.06
2022-10-29T01:54:59.225Z,101669.84
2022-10-29T02:00:05.836Z,101677.44
2022-10-29T02:05:27.523Z,101668.88
2022-10-29T02:10:38.021Z,101676.34
2022-10-29T02:15:44.740Z,101674.34
2022-10-29T02:20:49.231Z,101670.94
2022-10-29T02:25:52.129Z,101669.81
2022-10-29T02:30:54.997Z,101669.94
2022-10-29T02:35:59.321Z,101651.22
2022-10-29T02:41:02.370Z,101650.50
2022-10-29T02:46:15.633Z,101645.66
2022-10-29T02:51:19.840Z,101648.63
2022-10-29T02:56:22.665Z,101641.47
2022-10-29T03:01:26.087Z,101652.53
2022-10-29T03:06:30.632Z,101650.19
2022-10-29T03:11:33.730Z,101659.47
2022-10-29T03:16:36.546Z,101645.72
2022-10-29T03:21:40.801Z,101657.44
2022-10-29T03:26:43.625Z,101665.69
2022-10-29T03:31:46.507Z,101658.31
2022-10-29T03:36:51.454Z,101644.13
2022-10-29T03:41:54.458Z,101649.72
2022-10-29T03:46:57.222Z,101654.13
2022-10-29T03:52:01.397Z,101651.84
2022-10-29T03:57:05.431Z,101646.38
2022-10-29T04:02:09.387Z,101653.84
2022-10-29T04:07:14.447Z,101645.00
2022-10-29T04:12:17.280Z,101632.81
2022-10-29T04:17:20.070Z,101635.78
2022-10-29T04:28:41.946Z,101642.69
2022-10-29T04:33:09.916Z,101657.28
2022-10-29T04:38:14.658Z,101655.56
2022-10-29T04:43:17.886Z,101666.59
2022-10-29T04:48:21.442Z,101658.66
2022-10-29T04:53:25.731Z,101651.66
2022-10-29T04:58:30.657Z,101660.69
2022-10-29T05:03:35.180Z,101642.22
2022-10-29T05:08:39.450Z,101680.56
2022-10-29T05:13:42.352Z,101674.06
2022-10-29T05:18:45.496Z,101685.06
2022-10-29T05:24:29.568Z,101693.06
2022-10-29T05:29:32.393Z,101681.50
2022-10-29T05:34:35.332Z,101672.22
2022-10-29T05:39:39.776Z,101664.03
2022-10-29T05:44:43.670Z,101663.13
2022-10-29T05:49:46.600Z,101678.44
2022-10-29T05:54:51.031Z,101680.47
2022-10-29T05:59:53.815Z,101676.72
2022-10-29T06:04:56.814Z,101677.91
2022-10-29T06:10:01.397Z,101676.63
2022-10-29T06:15:04.939Z,101674.41
2022-10-29T06:20:09.436Z,101667.41
2022-10-29T06:25:13.759Z,101671.31
2022-10-29T06:30:16.829Z,101681.25
2022-10-29T06:35:19.694Z,101681.78
2022-10-29T06:40:24.044Z,101681.94
2022-10-29T06:45:26.913Z,101677.44
2022-10-29T06:50:30.370Z,101674.03
2022-10-29T06:55:38.636Z,101700.59
2022-10-29T07:00:42.658Z,101704.88
2022-10-29T07:05:46.192Z,101704.19
2022-10-29T07:10:51.945Z,101717.81
2022-10-29T07:15:54.731Z,101722.75
2022-10-29T07:20:58.600Z,101724.25
2022-10-29T07:26:03.012Z,101718.09
2022-10-29T07:31:07.800Z,101731.44
2022-10-29T07:36:10.762Z,101724.91
2022-10-29T07:41:15.282Z,101732.78
2022-10-29T07:46:18.134Z,101740.25
2022-10-29T07:51:20.969Z,101740.69
2022-10-29T07:56:25.098Z,101746.09
2022-10-29T08:01:27.944Z,101740.56
2022-10-29T08:06:30.907Z,101740.31
2022-10-29T08:11:35.346Z,101746.88
2022-10-29T08:16:38.231Z,101744.06
2022-10-29T08:21:41.277Z,101726.31
2022-10-29T08:26:45.824Z,101709.28
2022-10-29T08:31:48.676Z,101703.44
2022-10-29T08:36:51.454Z,101693.38
2022-10-29T08:42:10.363Z,101695.56
2022-10-29T08:47:19.011Z,101696.44
2022-10-29T08:52:27.727Z,101681.25
2022-10-29T08:57:34.921Z,101684.28
2022-10-29T09:02:40.255Z,101692.69
2022-10-29T09:08:06.948Z,101720.69
2022-10-29T09:13:27.960Z,101697.75
2022-10-29T09:18:48.577Z,101703.22
2022-10-29T09:24:03.082Z,101692.72
2022-10-29T09:29:25.878Z,101711.06
2022-10-29T09:34:32.853Z,101706.53
2022-10-29T09:39:40.757Z,101699.13
2022-10-29T09:44:54.065Z,101682.56
2022-10-29T09:50:08.794Z,101674.63
2022-10-29T09:55:20.860Z,101652.38
2022-10-29T10:00:27.401Z,101663.84
2022-10-29T10:05:32.329Z,101653.66
2022-10-29T10:10:37.200Z,101656.63
2022-10-29T10:15:51.266Z,101658.31
2022-10-29T10:21:04.051Z,101654.53
2022-10-29T10:26:07.439Z,101650.16
2022-10-29T10:31:16.111Z,101657.53
2022-10-29T10:36:21.676Z,101665.38
2022-10-29T10:41:28.615Z,101659.81
2022-10-29T10:46:35.709Z,101662.19
2022-10-29T10:51:40.744Z,101644.41
2022-10-29T10:56:53.629Z,101634.94
2022-10-29T11:02:01.013Z,101633.53
2022-10-29T11:07:08.248Z,101635.91
2022-10-29T11:12:15.882Z,101631.25
2022-10-29T11:17:28.229Z,101630.97
2022-10-29T11:22:35.531Z,101621.31
2022-10-29T11:27:46.633Z,101606.25
2022-10-29T11:33:03.739Z,101610.56
2022-10-29T11:38:14.338Z,101602.56
2022-10-29T11:43:21.149Z,101609.84
2022-10-29T11:48:38.010Z,101597.06
2022-10-29T11:53:56.762Z,101591.19
2022-10-29T11:59:05.853Z,101593.59
2022-10-29T12:04:25.403Z,101588.22
2022-10-29T12:10:01.300Z,101573.31
2022-10-29T12:15:13.770Z,101551.28
2022-10-29T12:20:27.780Z,101538.56
2022-10-29T12:25:40.421Z,101540.78
2022-10-29T12:30:54.366Z,101538.84
2022-10-29T12:36:04.775Z,101544.16
2022-10-29T12:41:14.704Z,101535.00
2022-10-29T12:46:27.437Z,101528.75
2022-10-29T12:51:41.269Z,101527.25
2022-10-29T12:56:47.860Z,101528.63
2022-10-29T13:07:26.693Z,101524.94
2022-10-29T13:13:01.214Z,101513.78
2022-10-29T13:18:09.153Z,101517.97
2022-10-29T13:23:35.928Z,101509.44
2022-10-29T13:28:51.185Z,101507.72
2022-10-29T13:33:54.353Z,101496.81
2022-10-29T13:39:07.505Z,101517.09
2022-10-29T13:44:13.232Z,101515.97
2022-10-29T13:49:23.006Z,101513.34
2022-10-29T13:54:38.411Z,101497.84
2022-10-29T13:59:44.244Z,101506.75
2022-10-29T14:04:50.599Z,101510.94
2022-10-29T14:09:57.912Z,101503.16
2022-10-29T14:15:12.480Z,101509.25
2022-10-29T14:20:23.133Z,101495.41
2022-10-29T14:25:37.739Z,101486.72
2022-10-29T14:30:40.577Z,101486.84
2022-10-29T14:35:44.090Z,101480.31
2022-10-29T14:40:48.762Z,101468.88
2022-10-29T14:45:52.849Z,101480.50
2022-10-29T14:50:56.653Z,101488.06
2022-10-29T14:56:05.376Z,101477.59
2022-10-29T15:01:15.596Z,101481.31
2022-10-29T15:06:20.740Z,101479.50
2022-10-29T15:11:37.328Z,101478.25
2022-10-29T15:16:42.438Z,101466.91
2022-10-29T15:21:46.189Z,101464.78
2022-10-29T15:26:53.046Z,101467.09
2022-10-29T15:31:58.464Z,101461.91
2022-10-29T15:37:16.585Z,101454.22
2022-10-29T15:42:23.505Z,101453.53
2022-10-29T15:47:29.096Z,101469.09
2022-10-29T15:52:33.887Z,101472.63
2022-10-29T15:57:38.282Z,101455.88
2022-10-29T16:02:41.393Z,101460.44
2022-10-29T16:07:45.513Z,101463.38
2022-10-29T16:12:50.829Z,101452.34
2022-10-29T16:17:54.297Z,101452.75
2022-10-29T16:22:57.436Z,101456.13
2022-10-29T16:28:01.645Z,101445.66
2022-10-29T16:33:04.808Z,101442.13
2022-10-29T16:38:07.671Z,101437.56
2022-10-29T16:43:12.078Z,101461.75
2022-10-29T16:48:14.926Z,101463.25
2022-10-29T16:53:17.743Z,101461.81
2022-10-29T16:58:22.110Z,101466.22
2022-10-29T17:03:24.948Z,101466.50
2022-10-29T17:08:32.159Z,101469.31
2022-10-29T17:13:36.896Z,101465.50
2022-10-29T17:18:39.693Z,101463.28
2022-10-29T17:23:42.463Z,101460.84
2022-10-29T17:28:46.840Z,101465.97
2022-10-29T17:33:52.795Z,101465.16
2022-10-29T17:38:55.578Z,101465.25
2022-10-29T17:43:59.907Z,101465.50
2022-10-29T17:49:02.799Z,101464.00
2022-10-29T17:54:05.866Z,101463.28
2022-10-29T17:59:10.048Z,101463.63
2022-10-29T18:04:13.626Z,101462.63
2022-10-29T18:09:21.428Z,101467.75
2022-10-29T18:15:01.344Z,101469.56
2022-10-29T18:20:12.425Z,101468.66
2022-10-29T18:25:15.544Z,101460.66
2022-10-29T18:30:23.064Z,101465.63
2022-10-29T18:35:27.939Z,101460.34
2022-10-29T18:40:31.133Z,101451.88
2022-10-29T18:45:34.095Z,101458.72
2022-10-29T18:50:40.801Z,101459.28
2022-10-29T18:55:52.689Z,101458.81
2022-10-29T19:00:55.924Z,101456.84
2022-10-29T19:06:03.161Z,101446.97
2022-10-29T19:11:13.513Z,101444.97
2022-10-29T19:16:16.882Z,101426.97
2022-10-29T19:21:21.108Z,101424.19
2022-10-29T19:26:34.347Z,101420.88
2022-10-29T19:31:37.536Z,101417.06
2022-10-29T19:36:43.992Z,101395.88
2022-10-29T19:41:46.939Z,101426.78
2022-10-29T19:47:02.433Z,101414.19
2022-10-29T19:52:16.622Z,101425.09
2022-10-29T19:57:22.142Z,101430.25
2022-10-29T20:03:29.491Z,101433.53
2022-10-29T20:08:37.271Z,101437.69
2022-10-29T20:13:41.133Z,101425.34
2022-10-29T20:18:44.746Z,101426.09
2022-10-29T20:23:50.442Z,101418.28
2022-10-29T20:28:53.521Z,101421.13
2022-10-29T20:33:57.835Z,101425.03
2022-10-29T20:39:02.204Z,101410.38
2022-10-29T20:44:05.272Z,101412.50
2022-10-29T20:49:08.208Z,101404.59
2022-10-29T20:54:12.417Z,101408.72
2022-10-29T20:59:15.297Z,101398.91
2022-10-29T21:04:18.410Z,101392.28
2022-10-29T21:09:23.255Z,101401.78
2022-10-29T21:14:27.429Z,101402.41
2022-10-29T21:19:30.588Z,101414.28
2022-10-29T21:24:35.654Z,101418.75
2022-10-29T21:29:38.689Z,101410.00
2022-10-29T21:34:41.758Z,101404.91
2022-10-29T21:39:45.997Z,101397.97
2022-10-29T21:44:48.934Z,101395.47
2022-10-29T21:49:52.132Z,101391.50
2022-10-29T21:54:56.351Z,101382.63
2022-10-29T21:59:59.282Z,101376.50
2022-10-29T22:05:02.117Z,101381.25
2022-10-29T22:10:07.521Z,101375.06
2022-10-29T22:15:10.754Z,101370.50
2022-10-29T22:20:15.659Z,101360.81
2022-10-29T22:25:21.272Z,101357.84
2022-10-29T22:30:24.136Z,101350.03
2022-10-29T22:35:27.079Z,101347.75
2022-10-29T22:40:31.593Z,101343.94
2022-10-29T22:45:34.386Z,101344.16
2022-10-29T22:50:37.198Z,101349.69
2022-10-29T22:55:41.351Z,101342.16
2022-10-29T23:00:44.104Z,101330.16
2022-10-29T23:05:57.315Z,101314.06
2022-10-29T23:11:05.512Z,101314.75
2022-10-29T23:16:08.884Z,101315.13
2022-10-29T23:21:11.628Z,101307.84
2022-10-29T23:26:15.992Z,101312.53
2022-10-29T23:31:20.290Z,101308.84
2022-10-29T23:36:25.174Z,101315.66
2022-10-29T23:41:30.415Z,101318.16
2022-10-29T23:46:33.242Z,101318.59
2022-10-29T23:51:35.977Z,101308.41
2022-10-29T23:56:40.077Z,101303.41
